sensor_id;sensor_type;location;lat;lon;timestamp;pressure;altitude;pressure_sealevel;temperature;humidity
40570;BME280;26270;34.428;-119.710;2022-12-20T00:01:23;101982.99;;;17.07;44.35
40570;BME280;26270;34.428;-119.710;2022-12-20T00:03:52;101981.85;;;16.93;44.66
40570;BME280;26270;34.428;-119.710;2022-12-20T00:06:21;101977.73;;;16.99;44.82
40570;BME280;26270;34.428;-119.710;2022-12-20T00:08:54;101982.70;;;16.99;44.83
40570;BME280;26270;34.428;-119.710;2022-12-20T00:11:24;101982.10;;;16.93;44.72
40570;BME280;26270;34.428;-119.710;2022-12-20T00:13:52;101986.07;;;16.92;45.11
40570;BME280;26270;34.428;-119.710;2022-12-20T00:16:23;101985.91;;;16.96;45.29
40570;BME280;26270;34.428;-119.710;2022-12-20T00:18:52;101983.70;;;16.76;46.11
40570;BME280;26270;34.428;-119.710;2022-12-20T00:21:22;101985.97;;;16.82;46.41
40570;BME280;26270;34.428;-119.710;2022-12-20T00:23:51;101986.40;;;16.73;46.83
40570;BME280;26270;34.428;-119.710;2022-12-20T00:26:21;101985.44;;;16.81;46.84
40570;BME280;26270;34.428;-119.710;2022-12-20T00:28:50;101978.56;;;16.46;47.63
40570;BME280;26270;34.428;-119.710;2022-12-20T00:31:21;101977.19;;;16.57;47.94
40570;BME280;26270;34.428;-119.710;2022-12-20T00:33:51;101975.54;;;16.58;47.94
40570;BME280;26270;34.428;-119.710;2022-12-20T00:36:21;101977.07;;;16.30;48.47
40570;BME280;26270;34.428;-119.710;2022-12-20T00:38:51;101974.84;;;16.47;48.94
40570;BME280;26270;34.428;-119.710;2022-12-20T00:41:22;101973.56;;;16.40;48.59
40570;BME280;26270;34.428;-119.710;2022-12-20T00:43:51;101971.00;;;16.22;49.07
40570;BME280;26270;34.428;-119.710;2022-12-20T00:46:20;101971.35;;;16.16;49.37
40570;BME280;26270;34.428;-119.710;2022-12-20T00:48:49;101971.51;;;16.17;49.50
40570;BME280;26270;34.428;-119.710;2022-12-20T00:51:21;101972.41;;;16.22;49.70
40570;BME280;26270;34.428;-119.710;2022-12-20T00:53:49;101971.64;;;16.26;50.13
40570;BME280;26270;34.428;-119.710;2022-12-20T00:56:18;101972.10;;;16.16;49.83
40570;BME280;26270;34.428;-119.710;2022-12-20T00:58:46;101972.26;;;16.03;50.48
40570;BME280;26270;34.428;-119.710;2022-12-20T01:01:18;101966.14;;;16.16;51.16
40570;BME280;26270;34.428;-119.710;2022-12-20T01:03:46;101967.42;;;15.96;51.62
40570;BME280;26270;34.428;-119.710;2022-12-20T01:06:15;101966.19;;;15.57;52.73
40570;BME280;26270;34.428;-119.710;2022-12-20T01:08:43;101967.48;;;15.82;53.14
40570;BME280;26270;34.428;-119.710;2022-12-20T01:11:14;101966.67;;;15.60;53.79
40570;BME280;26270;34.428;-119.710;2022-12-20T01:13:45;101968.04;;;15.52;54.70
40570;BME280;26270;34.428;-119.710;2022-12-20T01:16:16;101968.48;;;15.49;54.67
40570;BME280;26270;34.428;-119.710;2022-12-20T01:18:45;101968.44;;;15.51;54.84
40570;BME280;26270;34.428;-119.710;2022-12-20T01:21:15;101975.73;;;15.29;54.95
40570;BME280;26270;34.428;-119.710;2022-12-20T01:23:44;101976.89;;;15.27;55.22
40570;BME280;26270;34.428;-119.710;2022-12-20T01:26:13;101975.20;;;15.32;55.26
40570;BME280;26270;34.428;-119.710;2022-12-20T01:28:44;101976.10;;;15.24;55.35
40570;BME280;26270;34.428;-119.710;2022-12-20T01:31:15;101979.75;;;15.26;55.68
40570;BME280;26270;34.428;-119.710;2022-12-20T01:33:45;101982.91;;;14.97;56.42
40570;BME280;26270;34.428;-119.710;2022-12-20T01:36:16;101981.85;;;15.11;56.56
40570;BME280;26270;34.428;-119.710;2022-12-20T01:38:45;101985.09;;;15.07;56.34
40570;BME280;26270;34.428;-119.710;2022-12-20T01:41:16;101989.33;;;15.02;56.52
40570;BME280;26270;34.428;-119.710;2022-12-20T01:43:48;101991.84;;;15.09;56.23
40570;BME280;26270;34.428;-119.710;2022-12-20T01:46:17;101994.90;;;14.84;56.50
40570;BME280;26270;34.428;-119.710;2022-12-20T01:48:51;102000.54;;;14.73;55.99
40570;BME280;26270;34.428;-119.710;2022-12-20T01:51:20;102003.61;;;14.61;56.12
40570;BME280;26270;34.428;-119.710;2022-12-20T01:53:55;102005.74;;;14.69;56.15
40570;BME280;26270;34.428;-119.710;2022-12-20T01:56:25;102012.94;;;14.64;56.44
40570;BME280;26270;34.428;-119.710;2022-12-20T01:58:54;102013.74;;;14.44;56.51
40570;BME280;26270;34.428;-119.710;2022-12-20T02:01:24;102021.29;;;14.66;56.61
40570;BME280;26270;34.428;-119.710;2022-12-20T02:03:53;102023.46;;;14.37;57.05
40570;BME280;26270;34.428;-119.710;2022-12-20T02:06:24;102030.55;;;14.50;57.05
40570;BME280;26270;34.428;-119.710;2022-12-20T02:08:56;102030.72;;;14.32;57.70
40570;BME280;26270;34.428;-119.710;2022-12-20T02:11:39;102040.18;;;14.22;58.23
40570;BME280;26270;34.428;-119.710;2022-12-20T02:14:17;102046.72;;;14.22;58.27
40570;BME280;26270;34.428;-119.710;2022-12-20T02:16:52;102048.20;;;14.12;58.88
40570;BME280;26270;34.428;-119.710;2022-12-20T02:19:44;102050.62;;;14.35;58.87
40570;BME280;26270;34.428;-119.710;2022-12-20T02:22:22;102049.74;;;14.15;59.79
40570;BME280;26270;34.428;-119.710;2022-12-20T02:25:05;102051.81;;;14.12;59.62
40570;BME280;26270;34.428;-119.710;2022-12-20T02:27:45;102059.64;;;14.24;59.17
40570;BME280;26270;34.428;-119.710;2022-12-20T02:30:17;102062.31;;;14.20;59.78
40570;BME280;26270;34.428;-119.710;2022-12-20T02:32:53;102067.19;;;14.05;59.82
40570;BME280;26270;34.428;-119.710;2022-12-20T02:35:26;102069.12;;;14.02;59.63
40570;BME280;26270;34.428;-119.710;2022-12-20T02:37:56;102077.66;;;14.01;59.77
40570;BME280;26270;34.428;-119.710;2022-12-20T02:40:30;102086.87;;;14.05;59.77
40570;BME280;26270;34.428;-119.710;2022-12-20T02:43:03;102089.26;;;14.08;60.11
40570;BME280;26270;34.428;-119.710;2022-12-20T02:45:35;102096.28;;;13.82;60.03
40570;BME280;26270;34.428;-119.710;2022-12-20T02:48:07;102097.89;;;13.88;59.93
40570;BME280;26270;34.428;-119.710;2022-12-20T02:50:40;102106.46;;;13.78;60.25
40570;BME280;26270;34.428;-119.710;2022-12-20T02:53:12;102108.78;;;13.75;60.26
40570;BME280;26270;34.428;-119.710;2022-12-20T02:55:45;102109.49;;;13.56;60.17
40570;BME280;26270;34.428;-119.710;2022-12-20T02:58:22;102108.68;;;13.81;60.27
40570;BME280;26270;34.428;-119.710;2022-12-20T03:00:56;102105.44;;;13.80;60.03
40570;BME280;26270;34.428;-119.710;2022-12-20T03:03:26;102105.64;;;13.60;59.87
40570;BME280;26270;34.428;-119.710;2022-12-20T03:05:56;102104.37;;;13.48;60.30
40570;BME280;26270;34.428;-119.710;2022-12-20T03:08:25;102108.68;;;13.45;60.09
40570;BME280;26270;34.428;-119.710;2022-12-20T03:10:53;102116.28;;;13.22;60.66
40570;BME280;26270;34.428;-119.710;2022-12-20T03:13:23;102119.43;;;13.49;60.65
40570;BME280;26270;34.428;-119.710;2022-12-20T03:15:51;102120.61;;;13.36;60.86
40570;BME280;26270;34.428;-119.710;2022-12-20T03:18:19;102124.15;;;13.30;60.54
40570;BME280;26270;34.428;-119.710;2022-12-20T03:20:48;102126.60;;;13.42;60.95
40570;BME280;26270;34.428;-119.710;2022-12-20T03:23:16;102128.68;;;13.04;61.79
40570;BME280;26270;34.428;-119.710;2022-12-20T03:25:44;102130.83;;;13.07;61.93
40570;BME280;26270;34.428;-119.710;2022-12-20T03:28:12;102135.08;;;13.09;62.08
40570;BME280;26270;34.428;-119.710;2022-12-20T03:30:41;102135.70;;;13.10;62.22
40570;BME280;26270;34.428;-119.710;2022-12-20T03:33:09;102137.57;;;12.98;62.25
40570;BME280;26270;34.428;-119.710;2022-12-20T03:35:37;102137.08;;;13.19;61.72
40570;BME280;26270;34.428;-119.710;2022-12-20T03:38:05;102145.18;;;12.93;62.37
40570;BME280;26270;34.428;-119.710;2022-12-20T03:40:33;102143.26;;;12.98;61.91
40570;BME280;26270;34.428;-119.710;2022-12-20T03:43:01;102140.23;;;13.00;62.44
40570;BME280;26270;34.428;-119.710;2022-12-20T03:45:29;102144.28;;;13.03;62.60
40570;BME280;26270;34.428;-119.710;2022-12-20T03:47:57;102142.18;;;12.74;63.06
40570;BME280;26270;34.428;-119.710;2022-12-20T03:50:25;102142.87;;;12.83;62.55
40570;BME280;26270;34.428;-119.710;2022-12-20T03:52:53;102145.44;;;12.79;63.07
40570;BME280;26270;34.428;-119.710;2022-12-20T03:55:21;102145.37;;;12.89;62.86
40570;BME280;26270;34.428;-119.710;2022-12-20T03:57:49;102147.24;;;12.75;62.76
40570;BME280;26270;34.428;-119.710;2022-12-20T04:00:18;102151.27;;;12.90;61.71
40570;BME280;26270;34.428;-119.710;2022-12-20T04:02:46;102155.88;;;12.71;62.12
40570;BME280;26270;34.428;-119.710;2022-12-20T04:05:14;102156.62;;;12.62;62.26
40570;BME280;26270;34.428;-119.710;2022-12-20T04:07:43;102156.13;;;12.58;62.26
40570;BME280;26270;34.428;-119.710;2022-12-20T04:10:11;102159.25;;;12.76;61.99
40570;BME280;26270;34.428;-119.710;2022-12-20T04:12:40;102161.49;;;12.43;62.33
40570;BME280;26270;34.428;-119.710;2022-12-20T04:15:09;102160.90;;;12.31;62.44
40570;BME280;26270;34.428;-119.710;2022-12-20T04:17:38;102161.41;;;12.25;62.48
40570;BME280;26270;34.428;-119.710;2022-12-20T04:20:09;102158.25;;;12.06;62.64
40570;BME280;26270;34.428;-119.710;2022-12-20T04:22:40;102163.88;;;11.77;63.56
40570;BME280;26270;34.428;-119.710;2022-12-20T04:25:08;102164.53;;;11.74;64.20
40570;BME280;26270;34.428;-119.710;2022-12-20T04:27:36;102166.24;;;11.91;64.20
40570;BME280;26270;34.428;-119.710;2022-12-20T04:30:06;102164.35;;;11.93;63.95
40570;BME280;26270;34.428;-119.710;2022-12-20T04:32:34;102166.63;;;11.92;64.22
40570;BME280;26270;34.428;-119.710;2022-12-20T04:35:03;102168.48;;;11.96;64.18
40570;BME280;26270;34.428;-119.710;2022-12-20T04:37:31;102170.25;;;12.01;64.08
40570;BME280;26270;34.428;-119.710;2022-12-20T04:40:00;102170.58;;;12.09;64.37
40570;BME280;26270;34.428;-119.710;2022-12-20T04:42:29;102171.60;;;12.17;64.22
40570;BME280;26270;34.428;-119.710;2022-12-20T04:44:57;102176.01;;;11.89;65.10
40570;BME280;26270;34.428;-119.710;2022-12-20T04:47:26;102175.16;;;11.89;65.29
40570;BME280;26270;34.428;-119.710;2022-12-20T04:49:54;102174.71;;;11.96;65.17
40570;BME280;26270;34.428;-119.710;2022-12-20T04:52:23;102176.85;;;12.03;65.12
40570;BME280;26270;34.428;-119.710;2022-12-20T04:54:52;102176.10;;;11.87;65.18
40570;BME280;26270;34.428;-119.710;2022-12-20T04:57:19;102179.01;;;11.88;65.11
40570;BME280;26270;34.428;-119.710;2022-12-20T04:59:47;102178.23;;;12.11;64.99
40570;BME280;26270;34.428;-119.710;2022-12-20T05:03:19;102184.29;;;11.85;65.86
40570;BME280;26270;34.428;-119.710;2022-12-20T05:05:47;102185.86;;;11.69;65.53
40570;BME280;26270;34.428;-119.710;2022-12-20T05:08:15;102182.72;;;11.66;65.51
40570;BME280;26270;34.428;-119.710;2022-12-20T05:10:44;102183.34;;;11.73;65.82
40570;BME280;26270;34.428;-119.710;2022-12-20T05:13:12;102186.88;;;11.77;65.47
40570;BME280;26270;34.428;-119.710;2022-12-20T05:15:41;102186.83;;;11.81;65.63
40570;BME280;26270;34.428;-119.710;2022-12-20T05:18:10;102184.73;;;11.81;65.46
40570;BME280;26270;34.428;-119.710;2022-12-20T05:20:38;102186.21;;;11.63;66.29
40570;BME280;26270;34.428;-119.710;2022-12-20T05:23:08;102187.17;;;11.66;65.66
40570;BME280;26270;34.428;-119.710;2022-12-20T05:25:38;102185.83;;;11.65;65.62
40570;BME280;26270;34.428;-119.710;2022-12-20T05:28:05;102186.22;;;11.63;66.06
40570;BME280;26270;34.428;-119.710;2022-12-20T05:30:34;102190.24;;;11.63;66.04
40570;BME280;26270;34.428;-119.710;2022-12-20T05:33:02;102192.23;;;11.47;65.95
40570;BME280;26270;34.428;-119.710;2022-12-20T05:35:31;102192.51;;;11.50;65.93
40570;BME280;26270;34.428;-119.710;2022-12-20T05:37:59;102189.25;;;11.66;65.36
40570;BME280;26270;34.428;-119.710;2022-12-20T05:40:27;102187.25;;;11.55;65.50
40570;BME280;26270;34.428;-119.710;2022-12-20T05:42:56;102190.96;;;11.62;65.69
40570;BME280;26270;34.428;-119.710;2022-12-20T05:45:23;102194.06;;;11.62;65.58
40570;BME280;26270;34.428;-119.710;2022-12-20T05:47:51;102194.48;;;11.51;65.09
40570;BME280;26270;34.428;-119.710;2022-12-20T05:50:20;102196.41;;;11.60;65.06
40570;BME280;26270;34.428;-119.710;2022-12-20T05:52:49;102197.06;;;11.18;65.69
40570;BME280;26270;34.428;-119.710;2022-12-20T05:55:17;102197.89;;;11.19;65.12
40570;BME280;26270;34.428;-119.710;2022-12-20T05:57:45;102201.27;;;11.31;65.20
40570;BME280;26270;34.428;-119.710;2022-12-20T06:00:15;102200.92;;;11.27;64.88
40570;BME280;26270;34.428;-119.710;2022-12-20T06:02:43;102199.92;;;11.47;64.63
40570;BME280;26270;34.428;-119.710;2022-12-20T06:05:12;102203.44;;;11.40;64.68
40570;BME280;26270;34.428;-119.710;2022-12-20T06:07:40;102198.44;;;11.18;64.08
40570;BME280;26270;34.428;-119.710;2022-12-20T06:10:09;102198.38;;;11.21;64.52
40570;BME280;26270;34.428;-119.710;2022-12-20T06:12:37;102196.79;;;11.30;63.86
40570;BME280;26270;34.428;-119.710;2022-12-20T06:15:05;102200.14;;;11.13;63.66
40570;BME280;26270;34.428;-119.710;2022-12-20T06:17:34;102203.96;;;11.16;63.63
40570;BME280;26270;34.428;-119.710;2022-12-20T06:20:03;102204.42;;;11.24;63.46
40570;BME280;26270;34.428;-119.710;2022-12-20T06:22:32;102208.15;;;11.21;63.36
40570;BME280;26270;34.428;-119.710;2022-12-20T06:25:00;102210.13;;;11.06;63.29
40570;BME280;26270;34.428;-119.710;2022-12-20T06:27:28;102211.01;;;11.05;63.31
40570;BME280;26270;34.428;-119.710;2022-12-20T06:29:56;102210.16;;;11.08;63.32
40570;BME280;26270;34.428;-119.710;2022-12-20T06:32:24;102208.49;;;11.00;62.46
40570;BME280;26270;34.428;-119.710;2022-12-20T06:34:52;102200.68;;;10.94;62.65
40570;BME280;26270;34.428;-119.710;2022-12-20T06:37:20;102202.11;;;10.96;62.43
40570;BME280;26270;34.428;-119.710;2022-12-20T06:39:48;102203.51;;;10.90;62.84
40570;BME280;26270;34.428;-119.710;2022-12-20T06:42:16;102202.48;;;10.86;62.93
40570;BME280;26270;34.428;-119.710;2022-12-20T06:44:44;102200.70;;;10.62;62.78
40570;BME280;26270;34.428;-119.710;2022-12-20T06:47:12;102198.15;;;10.76;62.99
40570;BME280;26270;34.428;-119.710;2022-12-20T06:49:40;102197.32;;;10.72;62.70
40570;BME280;26270;34.428;-119.710;2022-12-20T06:52:08;102197.86;;;10.68;63.12
40570;BME280;26270;34.428;-119.710;2022-12-20T06:54:37;102199.96;;;10.53;63.70
40570;BME280;26270;34.428;-119.710;2022-12-20T06:57:06;102197.88;;;10.75;64.11
40570;BME280;26270;34.428;-119.710;2022-12-20T06:59:33;102197.22;;;10.81;63.51
40570;BME280;26270;34.428;-119.710;2022-12-20T07:02:01;102196.50;;;10.71;63.33
40570;BME280;26270;34.428;-119.710;2022-12-20T07:04:29;102194.47;;;10.81;63.51
40570;BME280;26270;34.428;-119.710;2022-12-20T07:06:56;102194.03;;;10.59;64.07
40570;BME280;26270;34.428;-119.710;2022-12-20T07:09:24;102195.26;;;10.61;64.44
40570;BME280;26270;34.428;-119.710;2022-12-20T07:11:52;102188.62;;;10.71;64.51
40570;BME280;26270;34.428;-119.710;2022-12-20T07:14:19;102189.37;;;10.74;64.65
40570;BME280;26270;34.428;-119.710;2022-12-20T07:16:47;102190.36;;;10.63;64.55
40570;BME280;26270;34.428;-119.710;2022-12-20T07:19:15;102188.59;;;10.64;64.69
40570;BME280;26270;34.428;-119.710;2022-12-20T07:21:44;102187.70;;;10.55;64.42
40570;BME280;26270;34.428;-119.710;2022-12-20T07:24:11;102188.14;;;10.66;64.66
40570;BME280;26270;34.428;-119.710;2022-12-20T07:26:39;102184.65;;;10.62;64.73
40570;BME280;26270;34.428;-119.710;2022-12-20T07:29:07;102188.68;;;10.55;64.96
40570;BME280;26270;34.428;-119.710;2022-12-20T07:31:35;102191.14;;;10.55;64.71
40570;BME280;26270;34.428;-119.710;2022-12-20T07:34:03;102194.00;;;10.26;64.95
40570;BME280;26270;34.428;-119.710;2022-12-20T07:36:30;102196.51;;;10.42;65.18
40570;BME280;26270;34.428;-119.710;2022-12-20T07:38:58;102197.22;;;10.45;64.96
40570;BME280;26270;34.428;-119.710;2022-12-20T07:41:26;102198.53;;;10.52;64.78
40570;BME280;26270;34.428;-119.710;2022-12-20T07:43:54;102194.40;;;10.47;64.62
40570;BME280;26270;34.428;-119.710;2022-12-20T07:46:22;102193.18;;;10.32;65.21
40570;BME280;26270;34.428;-119.710;2022-12-20T07:48:49;102191.47;;;10.46;65.13
40570;BME280;26270;34.428;-119.710;2022-12-20T07:51:22;102189.33;;;10.31;65.28
40570;BME280;26270;34.428;-119.710;2022-12-20T07:53:55;102186.05;;;10.47;65.25
40570;BME280;26270;34.428;-119.710;2022-12-20T07:56:26;102183.49;;;10.49;65.60
40570;BME280;26270;34.428;-119.710;2022-12-20T07:58:58;102178.45;;;10.27;65.18
40570;BME280;26270;34.428;-119.710;2022-12-20T08:01:28;102176.48;;;10.47;65.37
40570;BME280;26270;34.428;-119.710;2022-12-20T08:04:02;102172.44;;;10.41;65.42
40570;BME280;26270;34.428;-119.710;2022-12-20T08:06:31;102173.38;;;10.55;65.31
40570;BME280;26270;34.428;-119.710;2022-12-20T08:09:03;102172.35;;;10.36;64.92
40570;BME280;26270;34.428;-119.710;2022-12-20T08:11:34;102170.65;;;10.29;64.94
40570;BME280;26270;34.428;-119.710;2022-12-20T08:14:06;102171.77;;;10.47;65.07
40570;BME280;26270;34.428;-119.710;2022-12-20T08:16:34;102169.93;;;10.32;64.70
40570;BME280;26270;34.428;-119.710;2022-12-20T08:19:02;102171.29;;;10.49;63.75
40570;BME280;26270;34.428;-119.710;2022-12-20T08:21:31;102171.47;;;10.62;63.77
40570;BME280;26270;34.428;-119.710;2022-12-20T08:23:58;102172.41;;;10.37;63.66
40570;BME280;26270;34.428;-119.710;2022-12-20T08:26:27;102169.88;;;10.42;63.73
40570;BME280;26270;34.428;-119.710;2022-12-20T08:28:56;102166.87;;;10.42;63.49
40570;BME280;26270;34.428;-119.710;2022-12-20T08:31:24;102162.94;;;10.31;63.25
40570;BME280;26270;34.428;-119.710;2022-12-20T08:33:54;102160.86;;;10.36;63.55
40570;BME280;26270;34.428;-119.710;2022-12-20T08:36:22;102158.52;;;10.19;63.70
40570;BME280;26270;34.428;-119.710;2022-12-20T08:39:01;102157.65;;;10.26;63.68
40570;BME280;26270;34.428;-119.710;2022-12-20T08:41:30;102163.77;;;10.21;63.94
40570;BME280;26270;34.428;-119.710;2022-12-20T08:43:59;102166.71;;;10.08;64.00
40570;BME280;26270;34.428;-119.710;2022-12-20T08:46:27;102168.70;;;10.03;63.96
40570;BME280;26270;34.428;-119.710;2022-12-20T08:48:55;102177.50;;;10.19;63.30
40570;BME280;26270;34.428;-119.710;2022-12-20T08:51:24;102177.18;;;10.07;63.01
40570;BME280;26270;34.428;-119.710;2022-12-20T08:53:52;102178.08;;;10.17;62.77
40570;BME280;26270;34.428;-119.710;2022-12-20T08:56:20;102180.82;;;10.02;61.99
40570;BME280;26270;34.428;-119.710;2022-12-20T08:58:48;102182.56;;;10.03;62.32
40570;BME280;26270;34.428;-119.710;2022-12-20T09:01:19;102184.86;;;9.97;61.93
40570;BME280;26270;34.428;-119.710;2022-12-20T09:03:48;102180.63;;;9.93;60.73
40570;BME280;26270;34.428;-119.710;2022-12-20T09:06:19;102180.11;;;9.98;61.13
40570;BME280;26270;34.428;-119.710;2022-12-20T09:08:47;102179.17;;;10.08;61.10
40570;BME280;26270;34.428;-119.710;2022-12-20T09:11:18;102177.48;;;10.03;60.26
40570;BME280;26270;34.428;-119.710;2022-12-20T09:13:48;102182.33;;;9.96;60.52
40570;BME280;26270;34.428;-119.710;2022-12-20T09:16:18;102181.66;;;10.03;60.15
40570;BME280;26270;34.428;-119.710;2022-12-20T09:18:48;102181.51;;;10.10;58.76
40570;BME280;26270;34.428;-119.710;2022-12-20T09:21:17;102182.58;;;10.25;57.61
40570;BME280;26270;34.428;-119.710;2022-12-20T09:23:46;102183.87;;;10.31;56.11
40570;BME280;26270;34.428;-119.710;2022-12-20T09:26:15;102181.65;;;10.36;56.36
40570;BME280;26270;34.428;-119.710;2022-12-20T09:28:45;102183.12;;;10.44;55.71
40570;BME280;26270;34.428;-119.710;2022-12-20T09:31:15;102177.89;;;10.61;54.37
40570;BME280;26270;34.428;-119.710;2022-12-20T09:33:44;102174.67;;;10.77;53.37
40570;BME280;26270;34.428;-119.710;2022-12-20T09:36:13;102169.25;;;10.81;52.93
40570;BME280;26270;34.428;-119.710;2022-12-20T09:38:42;102169.25;;;10.74;54.18
40570;BME280;26270;34.428;-119.710;2022-12-20T09:41:25;102171.66;;;10.68;54.63
40570;BME280;26270;34.428;-119.710;2022-12-20T09:43:56;102168.82;;;10.72;55.35
40570;BME280;26270;34.428;-119.710;2022-12-20T09:46:25;102170.60;;;10.50;55.90
40570;BME280;26270;34.428;-119.710;2022-12-20T09:48:53;102171.06;;;10.39;56.43
40570;BME280;26270;34.428;-119.710;2022-12-20T09:51:32;102168.32;;;10.68;55.52
40570;BME280;26270;34.428;-119.710;2022-12-20T09:54:10;102166.60;;;10.53;55.64
40570;BME280;26270;34.428;-119.710;2022-12-20T09:56:45;102169.15;;;10.47;55.79
40570;BME280;26270;34.428;-119.710;2022-12-20T09:59:18;102166.73;;;10.46;55.72
40570;BME280;26270;34.428;-119.710;2022-12-20T10:01:48;102167.82;;;10.50;55.91
40570;BME280;26270;34.428;-119.710;2022-12-20T10:04:21;102172.79;;;10.37;56.73
40570;BME280;26270;34.428;-119.710;2022-12-20T10:07:04;102177.67;;;10.55;56.53
40570;BME280;26270;34.428;-119.710;2022-12-20T10:09:55;102178.38;;;10.38;56.66
40570;BME280;26270;34.428;-119.710;2022-12-20T10:12:33;102174.98;;;10.61;54.80
40570;BME280;26270;34.428;-119.710;2022-12-20T10:15:17;102177.36;;;10.67;53.74
40570;BME280;26270;34.428;-119.710;2022-12-20T10:17:56;102175.15;;;10.68;54.16
40570;BME280;26270;34.428;-119.710;2022-12-20T10:20:34;102176.99;;;10.77;54.15
40570;BME280;26270;34.428;-119.710;2022-12-20T10:23:14;102176.74;;;10.94;55.40
40570;BME280;26270;34.428;-119.710;2022-12-20T10:25:45;102172.48;;;10.85;54.87
40570;BME280;26270;34.428;-119.710;2022-12-20T10:28:15;102170.45;;;10.94;54.75
40570;BME280;26270;34.428;-119.710;2022-12-20T10:30:44;102172.68;;;10.86;53.24
40570;BME280;26270;34.428;-119.710;2022-12-20T10:33:18;102168.28;;;10.84;53.08
40570;BME280;26270;34.428;-119.710;2022-12-20T10:35:47;102165.41;;;11.09;52.74
40570;BME280;26270;34.428;-119.710;2022-12-20T10:38:16;102169.28;;;10.94;52.51
40570;BME280;26270;34.428;-119.710;2022-12-20T10:40:46;102165.88;;;10.71;54.34
40570;BME280;26270;34.428;-119.710;2022-12-20T10:43:16;102157.24;;;10.66;54.59
40570;BME280;26270;34.428;-119.710;2022-12-20T10:45:56;102150.94;;;10.47;55.63
40570;BME280;26270;34.428;-119.710;2022-12-20T10:48:29;102143.48;;;10.57;54.80
40570;BME280;26270;34.428;-119.710;2022-12-20T10:51:00;102142.37;;;10.54;55.38
40570;BME280;26270;34.428;-119.710;2022-12-20T10:53:30;102146.28;;;10.38;55.81
40570;BME280;26270;34.428;-119.710;2022-12-20T10:56:20;102143.24;;;10.46;56.32
40570;BME280;26270;34.428;-119.710;2022-12-20T10:58:55;102145.23;;;10.40;56.61
40570;BME280;26270;34.428;-119.710;2022-12-20T11:01:27;102146.68;;;10.42;56.24
40570;BME280;26270;34.428;-119.710;2022-12-20T11:03:59;102144.77;;;10.60;56.31
40570;BME280;26270;34.428;-119.710;2022-12-20T11:06:40;102143.00;;;10.52;55.45
40570;BME280;26270;34.428;-119.710;2022-12-20T11:09:23;102142.26;;;10.40;56.01
40570;BME280;26270;34.428;-119.710;2022-12-20T11:12:03;102147.16;;;10.18;56.00
40570;BME280;26270;34.428;-119.710;2022-12-20T11:14:33;102144.19;;;10.36;56.76
40570;BME280;26270;34.428;-119.710;2022-12-20T11:17:13;102142.32;;;10.49;55.88
40570;BME280;26270;34.428;-119.710;2022-12-20T11:19:58;102149.38;;;10.35;55.66
40570;BME280;26270;34.428;-119.710;2022-12-20T11:22:40;102147.10;;;10.38;56.20
40570;BME280;26270;34.428;-119.710;2022-12-20T11:25:24;102159.63;;;10.24;55.26
40570;BME280;26270;34.428;-119.710;2022-12-20T11:28:07;102158.39;;;10.09;54.35
40570;BME280;26270;34.428;-119.710;2022-12-20T11:30:46;102160.95;;;9.93;54.30
40570;BME280;26270;34.428;-119.710;2022-12-20T11:33:29;102156.80;;;10.12;54.81
40570;BME280;26270;34.428;-119.710;2022-12-20T11:36:07;102153.39;;;9.86;54.24
40570;BME280;26270;34.428;-119.710;2022-12-20T11:38:41;102156.72;;;9.73;53.92
40570;BME280;26270;34.428;-119.710;2022-12-20T11:41:20;102157.23;;;10.03;54.61
40570;BME280;26270;34.428;-119.710;2022-12-20T11:44:04;102150.88;;;10.21;55.45
40570;BME280;26270;34.428;-119.710;2022-12-20T11:46:44;102147.58;;;10.08;55.89
40570;BME280;26270;34.428;-119.710;2022-12-20T11:49:28;102145.87;;;10.09;56.51
40570;BME280;26270;34.428;-119.710;2022-12-20T11:52:07;102147.17;;;10.10;55.96
40570;BME280;26270;34.428;-119.710;2022-12-20T11:54:42;102146.23;;;10.03;57.21
40570;BME280;26270;34.428;-119.710;2022-12-20T11:57:19;102137.96;;;10.27;56.87
40570;BME280;26270;34.428;-119.710;2022-12-20T11:59:52;102142.30;;;10.02;56.91
40570;BME280;26270;34.428;-119.710;2022-12-20T12:02:27;102147.59;;;9.95;55.76
40570;BME280;26270;34.428;-119.710;2022-12-20T12:05:02;102142.53;;;10.02;55.89
40570;BME280;26270;34.428;-119.710;2022-12-20T12:07:33;102143.44;;;9.77;56.11
40570;BME280;26270;34.428;-119.710;2022-12-20T12:10:05;102139.00;;;9.78;55.84
40570;BME280;26270;34.428;-119.710;2022-12-20T12:12:43;102141.71;;;9.93;55.54
40570;BME280;26270;34.428;-119.710;2022-12-20T12:15:21;102142.87;;;9.97;55.70
40570;BME280;26270;34.428;-119.710;2022-12-20T12:17:59;102136.34;;;9.99;55.33
40570;BME280;26270;34.428;-119.710;2022-12-20T12:20:38;102139.73;;;9.72;54.74
40570;BME280;26270;34.428;-119.710;2022-12-20T12:23:15;102141.60;;;9.48;54.48
40570;BME280;26270;34.428;-119.710;2022-12-20T12:25:46;102138.10;;;9.73;55.73
40570;BME280;26270;34.428;-119.710;2022-12-20T12:28:19;102133.41;;;9.69;54.07
40570;BME280;26270;34.428;-119.710;2022-12-20T12:30:52;102128.54;;;9.81;55.73
40570;BME280;26270;34.428;-119.710;2022-12-20T12:33:25;102128.03;;;9.95;55.50
40570;BME280;26270;34.428;-119.710;2022-12-20T12:36:27;102126.08;;;9.78;54.86
40570;BME280;26270;34.428;-119.710;2022-12-20T12:39:18;102123.00;;;9.56;55.76
40570;BME280;26270;34.428;-119.710;2022-12-20T12:42:07;102117.61;;;9.53;54.83